createdAt,value
2018-11-29T00:01:12.834Z,37.48
2018-11-29T00:03:41.088Z,39.55
2018-11-29T00:06:09.408Z,39.53
2018-11-29T00:08:37.630Z,38.58
2018-11-29T00:11:06.142Z,39.42
2018-11-29T00:13:34.385Z,38.38
2018-11-29T00:16:02.577Z,38.42
2018-11-29T00:18:30.883Z,38.55
2018-11-29T00:20:59.258Z,39.78
2018-11-29T00:23:27.465Z,40.25
2018-11-29T00:25:56.217Z,41.18
2018-11-29T00:28:24.453Z,41.15
2018-11-29T00:30:52.701Z,40.00
2018-11-29T00:33:20.920Z,45.15
2018-11-29T00:35:49.516Z,40.95
2018-11-29T00:38:17.744Z,40.63
2018-11-29T00:40:46.017Z,39.65
2018-11-29T00:43:14.403Z,38.87
2018-11-29T00:45:42.619Z,39.40
2018-11-29T00:48:10.977Z,40.63
2018-11-29T00:50:39.301Z,40.15
2018-11-29T00:53:08.586Z,40.43
2018-11-29T00:55:36.878Z,40.28
2018-11-29T00:58:05.383Z,41.48
2018-11-29T01:00:33.686Z,41.23
2018-11-29T01:03:01.934Z,39.58
2018-11-29T01:05:30.995Z,39.08
2018-11-29T01:08:00.537Z,41.83
2018-11-29T01:10:28.941Z,42.43
2018-11-29T01:12:57.206Z,37.55
2018-11-29T01:15:25.470Z,39.08
2018-11-29T01:17:53.734Z,39.63
2018-11-29T01:20:22.229Z,37.50
2018-11-29T01:22:50.470Z,38.40
2018-11-29T01:25:18.709Z,38.30
2018-11-29T01:27:49.058Z,40.38
2018-11-29T01:30:18.202Z,39.80
2018-11-29T01:32:46.398Z,37.38
2018-11-29T01:35:15.758Z,36.77
2018-11-29T01:37:45.202Z,38.65
2018-11-29T01:40:17.206Z,39.73
2018-11-29T01:42:47.090Z,37.70
2018-11-29T01:45:15.567Z,37.63
2018-11-29T01:47:43.780Z,37.98
2018-11-29T01:50:12.045Z,38.48
2018-11-29T01:52:40.257Z,36.30
2018-11-29T01:55:09.194Z,37.63
2018-11-29T01:57:37.448Z,37.05
2018-11-29T02:00:08.183Z,35.92
2018-11-29T02:02:36.383Z,37.35
2018-11-29T02:05:05.177Z,38.42
2018-11-29T02:07:33.470Z,35.65
2018-11-29T02:10:07.234Z,35.35
2018-11-29T02:12:35.435Z,35.88
2018-11-29T02:15:03.702Z,36.75
2018-11-29T02:17:31.916Z,35.98
2018-11-29T02:20:00.154Z,35.15
2018-11-29T02:22:28.337Z,33.35
2018-11-29T02:24:56.551Z,36.25
2018-11-29T02:27:24.776Z,34.63
2018-11-29T02:29:53.015Z,34.55
2018-11-29T02:32:21.229Z,36.33
2018-11-29T02:52:05.757Z,33.90
2018-11-29T02:54:33.945Z,33.95
2018-11-29T02:57:02.234Z,34.65
2018-11-29T02:59:30.584Z,32.45
2018-11-29T03:01:58.828Z,34.30
2018-11-29T03:04:27.074Z,32.38
2018-11-29T03:06:55.286Z,33.60
2018-11-29T03:09:23.555Z,32.60
2018-11-29T03:11:51.794Z,32.63
2018-11-29T03:14:20.034Z,33.05
2018-11-29T03:16:48.257Z,32.13
2018-11-29T03:19:16.482Z,32.05
2018-11-29T03:21:44.683Z,33.60
2018-11-29T03:24:12.973Z,31.77
2018-11-29T03:26:41.211Z,31.45
2018-11-29T03:29:09.446Z,32.42
2018-11-29T03:31:37.647Z,32.42
2018-11-29T03:34:06.937Z,32.35
2018-11-29T03:36:35.383Z,32.15
2018-11-29T03:39:03.720Z,31.77
2018-11-29T03:41:31.941Z,32.05
2018-11-29T03:44:00.193Z,32.53
2018-11-29T03:46:28.473Z,31.90
2018-11-29T03:48:56.728Z,31.37
2018-11-29T03:51:25.036Z,30.75
2018-11-29T03:53:53.234Z,31.37
2018-11-29T03:56:21.481Z,30.72
2018-11-29T03:58:49.777Z,30.40
2018-11-29T04:01:18.047Z,29.80
2018-11-29T04:03:46.341Z,31.27
2018-11-29T04:06:14.557Z,31.17
2018-11-29T04:08:42.802Z,30.13
2018-11-29T04:11:11.560Z,29.72
2018-11-29T04:13:39.883Z,32.53
2018-11-29T04:16:08.116Z,31.20
2018-11-29T04:18:36.448Z,30.40
2018-11-29T04:21:04.726Z,30.25
2018-11-29T04:23:32.954Z,31.27
2018-11-29T04:26:01.313Z,30.15
2018-11-29T04:28:29.578Z,30.50
2018-11-29T04:30:57.786Z,30.82
2018-11-29T04:33:26.236Z,31.55
2018-11-29T04:35:54.589Z,29.32
2018-11-29T04:38:22.783Z,29.15
2018-11-29T04:40:51.154Z,29.98
2018-11-29T04:43:19.515Z,28.93
2018-11-29T04:45:58.971Z,28.67
2018-11-29T04:48:27.347Z,28.70
2018-11-29T04:50:55.609Z,28.23
2018-11-29T04:53:24.097Z,28.85
2018-11-29T04:55:52.450Z,29.00
2018-11-29T04:58:20.757Z,29.32
2018-11-29T05:00:49.113Z,27.77
2018-11-29T05:03:17.330Z,28.50
2018-11-29T05:05:45.610Z,28.92
2018-11-29T05:08:13.882Z,27.07
2018-11-29T05:10:42.133Z,29.90
2018-11-29T05:13:10.379Z,27.93
2018-11-29T05:15:38.640Z,28.98
2018-11-29T05:18:06.846Z,27.80
2018-11-29T05:20:35.127Z,28.65
2018-11-29T05:23:03.598Z,27.20
2018-11-29T05:25:31.862Z,25.85
2018-11-29T05:28:00.054Z,26.20
2018-11-29T05:30:28.385Z,26.48
2018-11-29T05:32:56.622Z,26.70
2018-11-29T05:35:24.875Z,27.02
2018-11-29T05:37:53.079Z,25.60
2018-11-29T05:40:21.313Z,27.15
2018-11-29T05:42:49.596Z,25.80
2018-11-29T05:45:17.843Z,26.87
2018-11-29T05:47:46.083Z,26.55
2018-11-29T05:50:14.278Z,27.65
2018-11-29T05:52:50.449Z,26.30
2018-11-29T05:55:18.840Z,26.45
2018-11-29T05:57:47.060Z,27.20
2018-11-29T06:00:15.294Z,25.90
2018-11-29T06:02:43.966Z,26.35
2018-11-29T06:05:13.574Z,26.52
2018-11-29T06:07:41.804Z,26.42
2018-11-29T06:10:09.996Z,26.17
2018-11-29T06:12:38.305Z,27.22
2018-11-29T06:15:08.094Z,27.93
2018-11-29T06:17:36.383Z,27.50
2018-11-29T06:20:05.185Z,24.47
2018-11-29T06:22:33.667Z,25.48
2018-11-29T06:25:01.920Z,24.50
2018-11-29T06:27:30.239Z,25.97
2018-11-29T06:29:58.459Z,25.77
2018-11-29T06:32:26.704Z,26.50
2018-11-29T06:34:54.959Z,25.82
2018-11-29T06:37:23.347Z,25.85
2018-11-29T06:39:51.541Z,24.25
2018-11-29T06:42:19.778Z,26.33
2018-11-29T06:44:48.035Z,24.37
2018-11-29T06:47:16.266Z,30.02
2018-11-29T06:49:44.479Z,29.10
2018-11-29T06:52:12.746Z,26.12
2018-11-29T06:54:41.115Z,25.75
2018-11-29T06:57:09.324Z,27.40
2018-11-29T06:59:37.571Z,25.70
2018-11-29T07:02:06.097Z,31.15
2018-11-29T07:04:34.684Z,24.43
2018-11-29T07:07:03.033Z,26.15
2018-11-29T07:09:31.289Z,25.37
2018-11-29T07:11:59.562Z,24.50
2018-11-29T07:14:27.854Z,24.27
2018-11-29T07:16:56.123Z,24.72
2018-11-29T07:19:24.397Z,24.57
2018-11-29T07:21:53.748Z,23.87
2018-11-29T07:24:22.601Z,24.23
2018-11-29T07:26:50.952Z,24.95
2018-11-29T07:29:20.382Z,24.30
2018-11-29T07:31:48.947Z,24.47
2018-11-29T07:34:17.243Z,23.90
2018-11-29T07:36:45.644Z,24.75
2018-11-29T07:39:14.159Z,22.82
2018-11-29T07:41:42.508Z,25.40
2018-11-29T07:44:10.957Z,30.15
2018-11-29T07:46:39.355Z,24.43
2018-11-29T07:49:07.870Z,23.85
2018-11-29T07:51:36.428Z,23.52
2018-11-29T07:54:05.087Z,22.62
2018-11-29T07:56:33.677Z,23.07
2018-11-29T07:59:02.174Z,24.05
2018-11-29T08:01:30.639Z,22.82
2018-11-29T08:03:59.078Z,22.55
2018-11-29T08:06:27.602Z,24.52
2018-11-29T08:08:55.934Z,23.45
2018-11-29T08:11:24.163Z,23.57
2018-11-29T08:13:52.448Z,21.80
2018-11-29T08:16:20.726Z,22.75
2018-11-29T08:18:48.974Z,22.07
2018-11-29T08:21:17.301Z,22.98
2018-11-29T08:23:45.768Z,21.60
2018-11-29T08:26:14.089Z,23.45
2018-11-29T08:28:42.372Z,22.67
2018-11-29T08:31:11.923Z,24.67
2018-11-29T08:33:40.236Z,27.02
2018-11-29T08:36:08.480Z,25.00
2018-11-29T08:38:36.823Z,23.02
2018-11-29T08:41:05.130Z,24.77
2018-11-29T08:43:33.446Z,24.95
2018-11-29T08:46:01.745Z,23.95
2018-11-29T08:48:29.998Z,24.23
2018-11-29T08:50:58.273Z,23.90
2018-11-29T08:53:26.823Z,24.35
2018-11-29T08:55:55.000Z,22.87
2018-11-29T08:58:23.372Z,22.70
2018-11-29T09:00:51.659Z,22.87
2018-11-29T09:03:20.071Z,23.83
2018-11-29T09:05:48.287Z,23.60
2018-11-29T09:08:16.647Z,24.27
2018-11-29T09:10:44.931Z,22.95
2018-11-29T09:13:13.287Z,23.92
2018-11-29T09:15:41.568Z,24.05
2018-11-29T09:18:09.781Z,23.42
2018-11-29T09:20:38.087Z,21.57
2018-11-29T09:23:06.955Z,22.82
2018-11-29T09:25:35.481Z,23.98
2018-11-29T09:28:03.667Z,22.93
2018-11-29T09:30:31.936Z,22.45
2018-11-29T09:33:00.176Z,24.20
2018-11-29T09:35:28.802Z,21.93
2018-11-29T09:37:57.598Z,22.62
2018-11-29T09:40:26.100Z,22.22
2018-11-29T09:42:54.499Z,23.32
2018-11-29T09:45:23.470Z,23.90
2018-11-29T09:47:53.549Z,23.27
2018-11-29T09:50:21.942Z,22.35
2018-11-29T09:52:50.147Z,22.10
2018-11-29T09:55:18.382Z,22.55
2018-11-29T09:57:47.578Z,23.35
2018-11-29T10:00:28.579Z,23.73
2018-11-29T10:03:04.058Z,24.67
2018-11-29T10:05:32.420Z,23.90
2018-11-29T10:08:00.736Z,23.35
2018-11-29T10:10:29.039Z,22.87
2018-11-29T10:12:57.330Z,21.85
2018-11-29T10:15:25.647Z,24.40
2018-11-29T10:17:53.927Z,23.98
2018-11-29T10:20:22.464Z,24.30
2018-11-29T10:22:50.724Z,24.75
2018-11-29T10:25:19.035Z,24.27
2018-11-29T10:27:49.315Z,19.75
2018-11-29T10:30:22.267Z,20.08
2018-11-29T10:32:50.724Z,18.40
2018-11-29T10:35:19.002Z,25.40
2018-11-29T10:37:47.262Z,21.90
2018-11-29T10:40:15.503Z,23.10
2018-11-29T10:42:43.792Z,22.42
2018-11-29T10:45:14.123Z,27.30
2018-11-29T10:47:43.298Z,23.67
2018-11-29T10:50:12.657Z,20.37
2018-11-29T10:52:40.929Z,22.73
2018-11-29T10:55:12.372Z,20.00
2018-11-29T10:57:40.992Z,19.05
2018-11-29T11:00:25.517Z,17.27
2018-11-29T11:03:00.343Z,18.12
2018-11-29T11:05:28.605Z,18.85
2018-11-29T11:07:56.897Z,18.10
2018-11-29T11:10:25.052Z,18.07
2018-11-29T11:12:53.361Z,20.08
2018-11-29T11:15:21.633Z,18.87
2018-11-29T11:17:50.040Z,22.10
2018-11-29T11:20:18.290Z,22.22
2018-11-29T11:22:46.587Z,21.97
2018-11-29T11:25:14.826Z,26.40
2018-11-29T11:27:43.048Z,24.70
2018-11-29T11:30:13.342Z,22.95
2018-11-29T11:32:41.769Z,22.48
2018-11-29T11:35:10.404Z,20.10
2018-11-29T11:37:38.728Z,22.98
2018-11-29T11:40:09.701Z,24.05
2018-11-29T11:42:38.030Z,19.55
2018-11-29T11:45:09.953Z,23.30
2018-11-29T11:47:38.140Z,17.25
2018-11-29T11:50:13.071Z,22.05
2018-11-29T11:52:41.310Z,22.95
2018-11-29T11:55:10.007Z,23.92
2018-11-29T11:57:39.313Z,22.05
2018-11-29T12:00:14.952Z,21.35
2018-11-29T12:02:43.810Z,24.13
2018-11-29T12:05:12.484Z,25.80
2018-11-29T12:07:41.179Z,21.75
2018-11-29T12:10:11.707Z,22.70
2018-11-29T12:12:40.121Z,21.55
2018-11-29T12:15:10.497Z,22.73
2018-11-29T12:17:38.952Z,21.65
2018-11-29T12:20:10.274Z,21.02
2018-11-29T12:22:38.573Z,22.22
2018-11-29T12:25:08.356Z,17.25
2018-11-29T12:27:36.610Z,18.92
2018-11-29T12:30:10.369Z,19.12
2018-11-29T12:32:39.404Z,18.52
2018-11-29T12:35:07.721Z,16.40
2018-11-29T12:37:35.970Z,21.25
2018-11-29T12:40:04.474Z,17.27
2018-11-29T12:42:33.868Z,19.48
2018-11-29T12:45:02.258Z,20.97
2018-11-29T12:47:30.435Z,21.20
2018-11-29T12:49:58.671Z,20.23
2018-11-29T12:52:26.978Z,19.87
2018-11-29T12:54:55.188Z,20.62
2018-11-29T12:57:23.367Z,18.80
2018-11-29T12:59:52.070Z,17.67
2018-11-29T13:02:20.297Z,18.83
2018-11-29T13:04:48.521Z,18.52
2018-11-29T13:07:23.475Z,19.35
2018-11-29T13:09:51.649Z,19.65
2018-11-29T13:12:19.880Z,19.00
2018-11-29T13:14:52.218Z,20.52
2018-11-29T13:17:20.468Z,20.27
2018-11-29T13:19:48.773Z,19.55
2018-11-29T13:22:16.978Z,18.25
2018-11-29T13:24:45.288Z,18.60
2018-11-29T13:27:13.570Z,18.48
2018-11-29T13:29:41.774Z,17.60
2018-11-29T13:32:10.039Z,18.52
2018-11-29T13:34:38.270Z,17.87
2018-11-29T13:37:06.566Z,18.55
2018-11-29T13:39:34.843Z,19.07
2018-11-29T13:42:03.179Z,18.62
2018-11-29T13:44:31.462Z,19.25
2018-11-29T13:46:59.746Z,17.92
2018-11-29T13:49:28.041Z,18.62
2018-11-29T13:51:56.305Z,17.67
2018-11-29T13:54:24.577Z,19.12
2018-11-29T13:56:52.853Z,19.15
2018-11-29T13:59:21.035Z,18.52
2018-11-29T14:01:49.246Z,18.05
2018-11-29T14:04:17.418Z,18.62
2018-11-29T14:06:45.630Z,19.20
2018-11-29T14:09:13.835Z,19.70
2018-11-29T14:11:42.115Z,18.77
2018-11-29T14:14:10.435Z,18.55
2018-11-29T14:16:38.664Z,17.62
2018-11-29T14:19:06.874Z,18.67
2018-11-29T14:21:35.187Z,17.57
2018-11-29T14:24:03.499Z,19.73
2018-11-29T14:26:31.767Z,20.35
2018-11-29T14:29:00.037Z,17.02
2018-11-29T14:31:28.228Z,19.92
2018-11-29T14:33:56.496Z,17.97
2018-11-29T14:36:24.794Z,18.70
2018-11-29T14:38:53.039Z,18.55
2018-11-29T14:41:21.329Z,18.82
2018-11-29T14:43:49.534Z,19.73
2018-11-29T14:46:17.729Z,16.37
2018-11-29T14:48:45.964Z,17.17
2018-11-29T14:51:14.181Z,16.25
2018-11-29T14:53:42.370Z,14.63
2018-11-29T14:56:10.619Z,17.60
2018-11-29T14:58:38.930Z,20.20
2018-11-29T15:01:07.951Z,18.92
2018-11-29T15:03:36.216Z,17.48
2018-11-29T15:06:04.409Z,19.37
2018-11-29T15:08:32.613Z,18.80
2018-11-29T15:11:01.264Z,22.25
2018-11-29T15:13:29.495Z,21.75
2018-11-29T15:15:57.857Z,20.15
2018-11-29T15:18:26.093Z,20.23
2018-11-29T15:20:54.361Z,20.32
2018-11-29T15:23:22.599Z,18.60
2018-11-29T15:25:50.889Z,19.52
2018-11-29T15:28:19.169Z,18.77
2018-11-29T15:30:47.423Z,18.12
2018-11-29T15:33:15.659Z,20.27
2018-11-29T15:35:43.880Z,20.72
2018-11-29T15:38:12.248Z,18.85
2018-11-29T15:40:40.773Z,17.70
2018-11-29T15:43:09.110Z,18.00
2018-11-29T15:45:37.692Z,17.65
2018-11-29T15:48:06.042Z,19.37
2018-11-29T15:50:34.390Z,19.85
2018-11-29T15:53:02.880Z,22.25
2018-11-29T15:55:31.269Z,19.62
2018-11-29T15:57:59.633Z,22.75
2018-11-29T16:00:30.655Z,21.17
2018-11-29T16:03:02.095Z,21.75
2018-11-29T16:05:30.690Z,19.48
2018-11-29T16:07:59.014Z,19.70
2018-11-29T16:10:27.638Z,20.00
2018-11-29T16:12:55.909Z,19.17
2018-11-29T16:15:24.188Z,22.37
2018-11-29T16:17:53.035Z,20.43
2018-11-29T16:20:27.406Z,20.00
2018-11-29T16:22:55.814Z,19.05
2018-11-29T16:25:24.091Z,19.30
2018-11-29T16:27:52.464Z,18.57
2018-11-29T16:30:24.114Z,18.73
2018-11-29T16:32:52.519Z,19.55
2018-11-29T16:35:20.744Z,18.90
2018-11-29T16:37:48.974Z,19.73
2018-11-29T16:40:17.551Z,19.00
2018-11-29T16:42:45.643Z,20.10
2018-11-29T16:45:14.123Z,18.05
2018-11-29T16:47:42.867Z,18.98
2018-11-29T16:50:12.636Z,16.70
2018-11-29T16:52:40.964Z,19.32
2018-11-29T16:55:10.267Z,17.85
2018-11-29T16:57:40.196Z,18.35
2018-11-29T17:00:13.381Z,17.87
2018-11-29T17:02:41.888Z,16.02
2018-11-29T17:05:12.508Z,17.62
2018-11-29T17:07:42.021Z,17.25
2018-11-29T17:10:12.964Z,16.93
2018-11-29T17:12:42.555Z,17.12
2018-11-29T17:15:13.094Z,16.17
2018-11-29T17:17:41.709Z,15.50
2018-11-29T17:20:11.715Z,16.83
2018-11-29T17:22:40.470Z,16.95
2018-11-29T17:25:10.218Z,17.60
2018-11-29T17:27:38.796Z,16.03
2018-11-29T17:30:11.940Z,18.02
2018-11-29T17:32:40.247Z,17.87
2018-11-29T17:35:08.606Z,23.52
2018-11-29T17:37:36.840Z,18.27
2018-11-29T17:40:09.131Z,15.20
2018-11-29T17:42:37.400Z,17.60
2018-11-29T17:45:07.785Z,18.92
2018-11-29T17:49:05.694Z,16.10
2018-11-29T17:51:34.002Z,15.20
2018-11-29T17:54:02.257Z,15.98
2018-11-29T17:56:30.492Z,16.02
2018-11-29T17:58:58.777Z,14.33
2018-11-29T18:01:27.001Z,16.65
2018-11-29T18:03:55.280Z,16.17
2018-11-29T18:06:23.523Z,19.40
2018-11-29T18:08:51.870Z,18.75
2018-11-29T18:11:20.122Z,16.67
2018-11-29T18:13:48.423Z,15.53
2018-11-29T18:16:16.697Z,16.10
2018-11-29T18:18:44.921Z,16.77
2018-11-29T18:21:13.329Z,15.10
2018-11-29T18:23:46.864Z,16.57
2018-11-29T18:26:09.919Z,15.90
2018-11-29T18:28:38.227Z,14.50
2018-11-29T18:31:06.506Z,16.65
2018-11-29T18:33:34.751Z,15.88
2018-11-29T18:36:03.129Z,16.65
2018-11-29T18:38:31.360Z,17.48
2018-11-29T18:40:59.686Z,15.70
2018-11-29T18:43:28.039Z,15.50
2018-11-29T18:45:56.294Z,15.90
2018-11-29T18:48:24.508Z,16.40
2018-11-29T18:50:52.780Z,16.15
2018-11-29T18:53:25.512Z,15.68
2018-11-29T18:56:00.486Z,15.55
2018-11-29T18:58:25.969Z,15.37
2018-11-29T19:00:54.317Z,14.60
2018-11-29T19:03:22.776Z,20.08
2018-11-29T19:05:51.333Z,15.25
2018-11-29T19:08:19.811Z,16.20
2018-11-29T19:10:48.177Z,14.20
2018-11-29T19:13:16.440Z,15.48
2018-11-29T19:15:44.772Z,15.00
2018-11-29T19:18:13.008Z,14.93
2018-11-29T19:20:41.349Z,13.80
2018-11-29T19:23:09.660Z,15.75
2018-11-29T19:25:38.042Z,15.70
2018-11-29T19:28:06.951Z,16.30
2018-11-29T19:30:35.595Z,14.25
2018-11-29T19:33:10.756Z,16.57
2018-11-29T19:52:56.887Z,14.60
2018-11-29T19:55:27.404Z,12.85
2018-11-29T19:57:55.877Z,13.65
2018-11-29T20:00:24.202Z,12.53
2018-11-29T20:02:53.740Z,13.10
2018-11-29T20:05:22.104Z,13.85
2018-11-29T20:07:50.947Z,13.10
2018-11-29T20:10:19.982Z,13.85
2018-11-29T20:12:53.974Z,13.30
2018-11-29T20:15:22.236Z,13.13
2018-11-29T20:17:50.557Z,12.70
2018-11-29T20:20:18.807Z,12.68
2018-11-29T20:22:47.040Z,14.65
2018-11-29T20:25:17.355Z,12.90
2018-11-29T20:27:45.696Z,15.95
2018-11-29T20:30:16.283Z,12.07
2018-11-29T20:32:44.770Z,13.88
2018-11-29T20:35:13.367Z,14.00
2018-11-29T20:37:41.902Z,17.93
2018-11-29T20:40:11.884Z,15.03
2018-11-29T20:42:40.283Z,15.05
2018-11-29T20:45:12.079Z,15.45
2018-11-29T20:47:41.478Z,16.05
2018-11-29T20:50:14.719Z,14.70
2018-11-29T20:52:40.042Z,15.03
2018-11-29T20:56:39.976Z,15.83
2018-11-29T20:59:08.297Z,15.03
2018-11-29T21:01:36.642Z,15.30
2018-11-29T21:04:05.091Z,15.00
2018-11-29T21:06:33.410Z,14.00
2018-11-29T21:09:01.667Z,13.43
2018-11-29T21:11:29.905Z,14.65
2018-11-29T21:13:58.219Z,13.55
2018-11-29T21:16:27.336Z,15.50
2018-11-29T21:18:55.684Z,14.00
2018-11-29T21:21:24.141Z,13.85
2018-11-29T21:23:52.518Z,14.85
2018-11-29T21:26:20.790Z,14.63
2018-11-29T21:28:49.010Z,13.75
2018-11-29T21:31:17.278Z,14.85
2018-11-29T21:51:01.771Z,41.42
2018-11-29T21:53:30.068Z,20.37
2018-11-29T21:55:58.458Z,18.48
2018-11-29T21:58:26.871Z,15.75
2018-11-29T22:00:55.198Z,16.75
2018-11-29T22:03:23.543Z,17.62
2018-11-29T22:05:51.748Z,15.50
2018-11-29T22:08:20.022Z,13.85
2018-11-29T22:10:48.324Z,13.88
2018-11-29T22:13:16.677Z,13.22
2018-11-29T22:15:44.986Z,14.15
2018-11-29T22:18:19.163Z,13.88
2018-11-29T22:20:48.472Z,14.75
2018-11-29T22:23:16.788Z,14.85
2018-11-29T22:25:45.033Z,16.80
2018-11-29T22:28:13.275Z,14.80
2018-11-29T22:30:41.564Z,15.28
2018-11-29T22:33:09.826Z,15.05
2018-11-29T22:35:38.035Z,14.30
2018-11-29T22:38:07.048Z,13.88
2018-11-29T22:40:35.269Z,16.10
2018-11-29T22:43:03.482Z,14.40
2018-11-29T22:45:31.703Z,13.25
2018-11-29T22:47:59.925Z,14.53
2018-11-29T22:50:28.129Z,13.93
2018-11-29T22:52:56.479Z,12.68
2018-11-29T22:55:24.723Z,14.15
2018-11-29T22:57:52.936Z,14.10
2018-11-29T23:00:21.191Z,13.05
2018-11-29T23:02:49.917Z,17.27
2018-11-29T23:05:18.167Z,14.70
2018-11-29T23:07:46.432Z,13.35
2018-11-29T23:10:14.825Z,14.93
2018-11-29T23:12:43.170Z,12.80
2018-11-29T23:15:12.297Z,14.05
2018-11-29T23:17:40.644Z,11.38
2018-11-29T23:20:10.995Z,11.25
2018-11-29T23:22:39.962Z,13.53
2018-11-29T23:25:09.794Z,14.35
2018-11-29T23:27:38.120Z,12.18
2018-11-29T23:30:10.119Z,15.23
2018-11-29T23:32:38.315Z,12.30
2018-11-29T23:52:22.655Z,14.20
2018-11-29T23:54:50.882Z,16.12
2018-11-29T23:57:19.134Z,13.50
2018-11-29T23:59:47.411Z,12.35
